This is the latest recevied weather packets stored in our database for station/object SP6YY-15. If no packets are shown the sender has not sent any weather packets the latest 10 day(s).
| Time | Temp. | Humidity | Pressure | Rain* | Wind** | Luminosity | Snow |
|---|---|---|---|---|---|---|---|
| 1777892560 | 45.56° C | 19% | 999.4 hPa | - | - | - | - |
| 1777886560 | 37.22° C | 22% | 1000.3 hPa | - | - | - | - |
| 1777886260 | 37.22° C | 23% | 1000.4 hPa | - | - | - | - |
| 1777885960 | 36.67° C | 23% | 1000.5 hPa | - | - | - | - |
| 1777885660 | 36.11° C | 23% | 1000.4 hPa | - | - | - | - |
| 1777885359 | 35.56° C | 23% | 1000.5 hPa | - | - | - | - |
| 1777885059 | 35.56° C | 23% | 1000.5 hPa | - | - | - | - |
| 1777884759 | 35° C | 23% | 1000.4 hPa | - | - | - | - |
| 1777884459 | 34.44° C | 23% | 1000.6 hPa | - | - | - | - |
| 1777884159 | 34.44° C | 23% | 1000.6 hPa | - | - | - | - |
| 1777883859 | 33.89° C | 23% | 1000.5 hPa | - | - | - | - |
| 1777883559 | 33.33° C | 23% | 1000.6 hPa | - | - | - | - |
| 1777883259 | 33.33° C | 23% | 1000.6 hPa | - | - | - | - |
| 1777882959 | 32.78° C | 23% | 1000.6 hPa | - | - | - | - |
| 1777882659 | 32.22° C | 23% | 1000.6 hPa | - | - | - | - |
| 1777882359 | 32.22° C | 23% | 1000.6 hPa | - | - | - | - |
| 1777882059 | 31.67° C | 23% | 1000.6 hPa | - | - | - | - |
| 1777881759 | 31.67° C | 23% | 1000.6 hPa | - | - | - | - |
| 1777881459 | 31.11° C | 23% | 1000.7 hPa | - | - | - | - |
| 1777881159 | 31.11° C | 23% | 1000.7 hPa | - | - | - | - |
| 1777880869 | 30.56° C | 23% | 1000.6 hPa | - | - | - | - |
| 1777880558 | 30.56° C | 23% | 1000.6 hPa | - | - | - | - |
| 1777880259 | 30.56° C | 23% | 1000.7 hPa | - | - | - | - |
| 1777879959 | 30° C | 23% | 1000.7 hPa | - | - | - | - |
| 1777879659 | 30° C | 23% | 1000.8 hPa | - | - | - | - |
* Rain since midnight (hover to see other rain measurements)
** Current wind speed in m/s (hover to see current wind gust speed)